首页
METAR-TAF:

METAR-TAF

机场 :

麦迪逊, 威斯康辛州, 美国

纬度: 43-08-26N, 经度: 089-20-43W, 海拔: 262米

当前天气观测

该预报发布于42分钟前的14:53 UTC
风速5节,风向多变
温度 22°C
湿度 69%
气压 1015 hPa
能見度: 16.1公里
少量云层高于2800英尺
多云层高于12000英尺

METAR: KMSN 181453Z VRB05KT 10SM FEW028 BKN120 22/16 A2996 RMK AO2 SLP141 T02170156 58001

时间: 10:35 (15:35 UTC)

预报

该预报发布于37分钟前的14:58 UTC
预报有效从18日的 15点(UTC)到 19日的 12点(UTC)
风速5节,风向多变
能見度: 10公里
多云层高于10000英尺
从 18日的 1800点(UTC)
风速5节,风向西
能見度: 10公里
多云层高于6000英尺, 积雨云.
附近有雷暴
从 19日的 0000点(UTC)
风速5节,风向西转西北
能見度: 10公里
多云层高于6000英尺
附近有阵雨
从 19日的 0200点(UTC)
风速4节,风向多变
能見度: 10公里
多云层高于6000英尺
从 19日的 1100点(UTC)
风速3节,风向多变
能見度: 10公里
多云层高于3000英尺

TAF: KMSN 181458Z 1815/1912 VRB05KT P6SM BKN100 FM181800 26005KT P6SM VCTS BKN060CB FM190000 30005KT P6SM VCSH BKN060 FM190200 VRB04KT P6SM BKN060 FM191100 VRB03KT P6SM BKN030

超过4000个机场的气象观测和天气预报(METAR&TAF报告)。

可查询的气象台以黄色和红色小点在地图上表示。

将鼠标移到小点上方,可查看气象台名称。

然后点击查看天气观测和预报。

如需切换地图:点击带黑十字的绿色按钮放大地图;点击带横线的绿色按钮缩小地图;或者点击绿色箭头查看邻近地区的地图。


METAR-TAF: